Time;durP1;ratioP1;P1;durP2;ratioP2;P2;SDS_P1;SDS_P2;PMS_P1;PMS_P2;Temp;Humidity;BMP_temperature;BMP_pressure;BME280_temperature;BME280_humidity;BME280_pressure;Samples;Min_cycle;Max_cycle;Signal;HPM_P1;HPM_P2
2023/05/12 04:05:45;;;;;;;5.35;3.30;;;;;;;10.17;100.00;100514.00;6524179;27;20183;-83
2023/05/12 04:08:49;;;;;;;5.53;3.40;;;;;;;10.21;100.00;100520.72;6504200;27;33808;-83
2023/05/12 04:11:52;;;;;;;4.28;3.40;;;;;;;10.23;100.00;100521.38;6487916;27;33633;-83
2023/05/12 04:14:55;;;;;;;5.97;3.60;;;;;;;10.23;100.00;100531.31;6506239;27;33858;-83
2023/05/12 04:17:59;;;;;;;3.67;3.37;;;;;;;10.26;100.00;100530.12;6503892;27;34112;-83
2023/05/12 04:21:02;;;;;;;6.75;3.42;;;;;;;10.31;100.00;100533.19;6486724;27;33773;-83
2023/05/12 04:24:05;;;;;;;4.18;3.47;;;;;;;10.31;100.00;100525.94;6503668;27;33799;-83
2023/05/12 04:27:10;;;;;;;7.95;3.50;;;;;;;10.34;100.00;100530.97;6504213;27;33852;-83
2023/05/12 04:30:13;;;;;;;5.00;3.60;;;;;;;10.38;100.00;100532.34;6503654;27;34899;-83
2023/05/12 04:33:17;;;;;;;3.55;3.25;;;;;;;10.40;100.00;100541.06;6506442;27;34073;-83
2023/05/12 04:36:20;;;;;;;4.40;3.60;;;;;;;10.40;100.00;100529.44;6523686;27;34205;-83
2023/05/12 04:39:24;;;;;;;6.68;3.70;;;;;;;10.46;100.00;100539.53;6487078;27;33556;-83
2023/05/12 04:42:27;;;;;;;4.93;3.22;;;;;;;10.50;100.00;100534.63;6486777;27;33876;-83
2023/05/12 04:45:30;;;;;;;4.07;3.30;;;;;;;10.52;100.00;100538.00;6486592;27;33866;-83
2023/05/12 04:48:33;;;;;;;4.55;3.25;;;;;;;10.59;100.00;100537.12;6489986;27;34025;-82
2023/05/12 04:51:41;;;;;;;5.78;3.50;;;;;;;10.65;100.00;100533.75;6527634;27;34200;-83
2023/05/12 04:54:44;;;;;;;4.07;3.40;;;;;;;10.71;100.00;100532.22;6505296;27;33540;-83
2023/05/12 04:57:47;;;;;;;3.85;3.37;;;;;;;10.81;100.00;100529.28;6523434;27;33799;-83
2023/05/12 05:00:50;;;;;;;5.65;3.37;;;;;;;10.78;100.00;100535.03;6503956;27;33945;-83
2023/05/12 05:03:53;;;;;;;4.97;3.60;;;;;;;10.78;100.00;100535.87;6504383;27;33425;-83
2023/05/12 05:06:56;;;;;;;4.97;3.75;;;;;;;10.82;100.00;100533.66;6530879;27;34976;-82
2023/05/12 05:09:59;;;;;;;6.75;4.35;;;;;;;10.75;100.00;100538.91;6514107;27;33688;-82
2023/05/12 05:13:03;;;;;;;5.22;3.67;;;;;;;10.79;100.00;100539.38;6514953;27;32266;-82
2023/05/12 05:16:06;;;;;;;3.90;3.40;;;;;;;10.75;100.00;100546.16;6532722;27;33777;-82
2023/05/12 05:19:10;;;;;;;7.00;4.07;;;;;;;10.79;100.00;100542.94;6513801;27;34806;-82
2023/05/12 05:22:27;;;;;;;4.30;3.70;;;;;;;10.80;100.00;100547.31;6518326;27;33865;-82
2023/05/12 05:25:29;;;;;;;4.03;3.50;;;;;;;10.84;100.00;100534.31;6535763;27;34083;-82
2023/05/12 05:28:33;;;;;;;3.83;3.47;;;;;;;10.93;100.00;100543.22;6549569;27;33815;-82
2023/05/12 05:31:35;;;;;;;5.75;3.75;;;;;;;10.95;100.00;100541.19;6556512;27;34345;-82
2023/05/12 05:34:39;;;;;;;4.05;3.47;;;;;;;10.86;100.00;100537.69;6557306;27;34590;-82
2023/05/12 05:37:41;;;;;;;7.07;3.67;;;;;;;10.83;100.00;100548.81;6531848;27;33821;-82
2023/05/12 05:40:44;;;;;;;5.18;3.87;;;;;;;10.85;100.00;100544.06;6513989;27;33493;-85
2023/05/12 05:43:55;;;;;;;8.43;4.10;;;;;;;10.98;100.00;100551.59;6533977;27;33785;-86
2023/05/12 05:46:59;;;;;;;4.47;3.67;;;;;;;10.93;100.00;100540.50;6514844;27;33823;-82
2023/05/12 05:50:03;;;;;;;4.20;3.42;;;;;;;10.83;100.00;100546.97;6513959;27;34869;-82
2023/05/12 05:53:07;;;;;;;3.97;3.47;;;;;;;10.81;100.00;100557.06;6550709;27;33517;-82
2023/05/12 05:56:10;;;;;;;6.12;3.47;;;;;;;10.90;100.00;100555.16;6531227;27;33768;-82
2023/05/12 05:59:13;;;;;;;3.58;3.25;;;;;;;10.90;100.00;100547.91;6531123;27;35079;-82
2023/05/12 06:02:16;;;;;;;4.72;3.62;;;;;;;10.88;100.00;100560.75;6532205;27;33829;-82
2023/05/12 06:05:19;;;;;;;4.12;3.47;;;;;;;10.84;100.00;100554.00;6532401;27;35249;-82
2023/05/12 06:08:23;;;;;;;4.50;4.00;;;;;;;10.89;100.00;100561.59;6536032;27;34510;-83
2023/05/12 06:11:26;;;;;;;4.70;3.75;;;;;;;11.03;100.00;100565.41;6532077;27;34244;-82
2023/05/12 06:14:28;;;;;;;5.45;3.67;;;;;;;11.11;100.00;100570.72;6551266;27;33547;-82
2023/05/12 06:17:31;;;;;;;4.20;3.70;;;;;;;11.22;100.00;100564.94;6530917;27;34211;-82
2023/05/12 06:20:34;;;;;;;4.15;3.70;;;;;;;11.31;100.00;100563.03;6550698;27;34150;-82
2023/05/12 06:23:37;;;;;;;8.48;4.25;;;;;;;11.40;100.00;100566.50;6515238;27;33909;-82
2023/05/12 06:26:40;;;;;;;5.05;3.97;;;;;;;11.35;100.00;100558.97;6531414;27;33997;-82
2023/05/12 06:29:42;;;;;;;4.45;3.72;;;;;;;11.44;100.00;100563.28;6513792;27;33415;-82
2023/05/12 06:32:45;;;;;;;6.37;3.75;;;;;;;11.53;100.00;100558.69;6531361;27;34003;-82
2023/05/12 06:35:48;;;;;;;5.97;4.05;;;;;;;11.49;100.00;100560.03;6531205;27;34661;-82
2023/05/12 06:38:51;;;;;;;6.65;3.70;;;;;;;11.51;100.00;100564.25;6531942;27;33790;-82
2023/05/12 06:41:54;;;;;;;7.93;3.90;;;;;;;11.60;100.00;100566.88;6513637;27;34988;-82
2023/05/12 06:44:56;;;;;;;6.10;3.83;;;;;;;11.56;100.00;100569.13;6550787;27;33813;-82
2023/05/12 06:48:00;;;;;;;4.45;3.65;;;;;;;11.43;100.00;100566.16;6532229;27;33871;-82
2023/05/12 06:51:03;;;;;;;4.72;3.60;;;;;;;11.50;100.00;100562.56;6514477;27;33838;-82
2023/05/12 06:54:06;;;;;;;6.05;3.90;;;;;;;11.45;100.00;100558.72;6530974;27;34345;-82
2023/05/12 06:57:09;;;;;;;5.75;3.80;;;;;;;11.47;100.00;100565.63;6512864;27;33806;-82
2023/05/12 07:00:13;;;;;;;5.82;3.58;;;;;;;11.56;100.00;100559.16;6513100;27;33770;-82
2023/05/12 07:03:16;;;;;;;4.75;3.70;;;;;;;11.61;100.00;100563.16;6551157;27;33980;-82
2023/05/12 07:06:20;;;;;;;5.47;3.70;;;;;;;11.55;100.00;100564.72;6531533;27;34056;-82
2023/05/12 07:09:22;;;;;;;4.80;3.75;;;;;;;11.57;100.00;100574.31;6551534;27;33582;-82
2023/05/12 07:12:25;;;;;;;5.95;4.07;;;;;;;11.67;100.00;100567.84;6533675;27;33462;-82
2023/05/12 07:15:31;;;;;;;6.32;4.32;;;;;;;11.94;100.00;100569.19;6533527;27;34097;-82
2023/05/12 07:18:35;;;;;;;5.28;3.90;;;;;;;12.10;100.00;100557.38;6517802;27;34071;-82
2023/05/12 07:21:37;;;;;;;6.57;3.85;;;;;;;12.36;100.00;100556.97;6532386;27;34458;-82
2023/05/12 07:24:41;;;;;;;4.20;3.67;;;;;;;12.50;100.00;100558.84;6514608;27;34846;-81
2023/05/12 07:27:43;;;;;;;5.22;3.90;;;;;;;12.67;100.00;100559.50;6532996;27;33571;-82
2023/05/12 07:30:46;;;;;;;6.00;3.78;;;;;;;12.74;100.00;100560.41;6533188;27;34202;-82
2023/05/12 07:33:49;;;;;;;6.45;3.58;;;;;;;12.73;100.00;100564.12;6554176;27;33567;-83
2023/05/12 07:36:52;;;;;;;4.82;3.85;;;;;;;12.70;100.00;100568.03;6519427;27;33921;-83
2023/05/12 07:39:54;;;;;;;4.35;3.50;;;;;;;12.67;100.00;100559.50;6537045;27;33825;-83
2023/05/12 07:42:57;;;;;;;4.32;3.60;;;;;;;12.73;100.00;100561.44;6518174;27;34335;-83
2023/05/12 07:46:00;;;;;;;5.03;3.50;;;;;;;12.52;100.00;100561.31;6514702;27;34549;-82
2023/05/12 07:49:03;;;;;;;6.40;3.85;;;;;;;12.59;100.00;100563.09;6536264;27;33534;-84
2023/05/12 07:52:06;;;;;;;5.78;3.35;;;;;;;12.62;100.00;100568.13;6533722;27;34365;-85
2023/05/12 07:55:09;;;;;;;4.18;3.58;;;;;;;12.74;100.00;100564.97;6518896;27;35303;-84
2023/05/12 07:58:11;;;;;;;3.67;3.20;;;;;;;12.74;100.00;100564.97;6533250;27;33626;-83
2023/05/12 08:01:14;;;;;;;4.15;3.37;;;;;;;12.73;100.00;100571.41;6553348;27;34236;-87
2023/05/12 08:04:17;;;;;;;3.83;3.45;;;;;;;12.72;100.00;100565.16;6497667;27;34180;-89
2023/05/12 08:07:20;;;;;;;4.75;3.47;;;;;;;12.88;100.00;100564.97;6549766;27;35053;-89
2023/05/12 08:10:28;;;;;;;5.30;3.72;;;;;;;13.01;100.00;100572.37;6514191;27;33828;-88
2023/05/12 08:13:31;;;;;;;4.45;3.60;;;;;;;13.08;100.00;100581.44;6550950;27;33984;-84
2023/05/12 08:16:33;;;;;;;3.53;3.22;;;;;;;13.09;100.00;100579.56;6516052;27;35043;-83
2023/05/12 08:19:36;;;;;;;5.12;3.05;;;;;;;13.08;100.00;100578.72;6514815;27;34135;-81
2023/05/12 08:22:39;;;;;;;6.37;3.50;;;;;;;13.00;100.00;100586.09;6513500;27;34078;-83
2023/05/12 08:25:43;;;;;;;4.65;3.25;;;;;;;12.85;100.00;100575.31;6512423;27;33906;-83
2023/05/12 08:28:46;;;;;;;3.67;3.22;;;;;;;13.00;100.00;100573.41;6512830;27;34335;-83
2023/05/12 08:31:49;;;;;;;4.55;3.85;;;;;;;13.25;100.00;100582.09;6530683;27;33748;-83
2023/05/12 08:34:52;;;;;;;5.05;3.80;;;;;;;13.21;100.00;100583.44;6514054;27;33812;-82
2023/05/12 08:37:55;;;;;;;4.87;3.70;;;;;;;13.48;100.00;100581.88;6550568;27;33936;-84
2023/05/12 08:41:40;;;;;;;3.97;3.55;;;;;;;13.57;100.00;100586.19;6531414;27;35001;-82
2023/05/12 08:44:44;;;;;;;4.12;3.60;;;;;;;13.84;100.00;100581.84;6523618;27;33490;-82
2023/05/12 08:47:49;;;;;;;5.95;3.75;;;;;;;13.69;100.00;100586.50;6552374;27;33382;-83
2023/05/12 08:50:53;;;;;;;4.62;3.80;;;;;;;13.76;100.00;100584.69;6551997;27;34313;-82
2023/05/12 08:54:18;;;;;;;5.45;4.05;;;;;;;13.54;100.00;100593.81;6550819;27;34838;-83
2023/05/12 08:57:20;;;;;;;5.03;3.60;;;;;;;13.17;100.00;100595.66;6550869;27;33980;-84
2023/05/12 09:00:24;;;;;;;5.68;4.22;;;;;;;13.25;100.00;100594.69;6551199;27;33819;-82
2023/05/12 09:03:27;;;;;;;4.97;4.05;;;;;;;13.28;100.00;100599.75;6531241;27;33881;-83
2023/05/12 09:06:31;;;;;;;4.90;3.90;;;;;;;13.27;100.00;100603.50;6513383;27;33630;-83
2023/05/12 09:09:35;;;;;;;5.53;3.70;;;;;;;13.46;100.00;100607.47;6550094;27;34607;-82
2023/05/12 09:12:39;;;;;;;6.05;3.70;;;;;;;13.37;100.00;100609.47;6531308;27;33608;-82
2023/05/12 09:15:44;;;;;;;8.52;4.28;;;;;;;12.90;100.00;100618.81;6531395;27;33769;-82
2023/05/12 09:18:58;;;;;;;4.90;3.85;;;;;;;12.65;100.00;100612.84;6531835;27;33837;-83
2023/05/12 09:22:00;;;;;;;5.37;3.67;;;;;;;12.53;100.00;100612.47;6531036;27;33640;-86
2023/05/12 09:25:17;;;;;;;5.50;3.95;;;;;;;12.44;100.00;100619.81;6531361;27;34689;-86
2023/05/12 09:28:20;;;;;;;5.12;3.75;;;;;;;12.23;100.00;100622.41;6531603;27;34183;-82
2023/05/12 09:31:24;;;;;;;5.05;4.07;;;;;;;12.07;100.00;100625.22;6531544;27;33806;-83
2023/05/12 09:34:34;;;;;;;4.80;4.30;;;;;;;12.04;100.00;100629.12;6531781;27;33492;-83
2023/05/12 09:37:39;;;;;;;6.22;4.35;;;;;;;11.93;100.00;100637.63;6532159;27;34278;-83
2023/05/12 09:40:42;;;;;;;7.22;5.18;;;;;;;11.91;100.00;100647.78;6548495;27;33556;-83
2023/05/12 09:43:45;;;;;;;5.87;4.37;;;;;;;11.87;100.00;100641.06;6512860;27;33931;-83
2023/05/12 09:46:48;;;;;;;6.15;4.22;;;;;;;11.70;100.00;100646.56;6550282;27;33507;-83
2023/05/12 09:49:51;;;;;;;4.90;4.45;;;;;;;11.46;100.00;100650.22;6550304;27;33554;-83
2023/05/12 09:52:54;;;;;;;5.12;4.50;;;;;;;11.50;100.00;100648.03;6513536;27;33865;-83
2023/05/12 09:55:57;;;;;;;6.68;4.75;;;;;;;11.41;100.00;100658.00;6513660;27;34151;-83
2023/05/12 09:59:02;;;;;;;6.65;5.15;;;;;;;11.34;100.00;100654.31;6531255;27;33958;-83
2023/05/12 10:02:08;;;;;;;8.85;5.00;;;;;;;11.23;100.00;100652.88;6551207;27;34068;-82
2023/05/12 10:05:19;;;;;;;5.60;4.70;;;;;;;11.14;100.00;100651.19;6551595;27;33898;-83
2023/05/12 10:08:37;;;;;;;7.22;5.35;;;;;;;11.01;100.00;100654.47;6553761;27;34567;-83
2023/05/12 10:11:41;;;;;;;7.28;4.85;;;;;;;10.85;100.00;100652.69;6554041;27;34059;-83
2023/05/12 10:14:45;;;;;;;8.38;5.55;;;;;;;10.81;100.00;100663.94;6535544;27;34069;-82
2023/05/12 10:17:49;;;;;;;8.18;4.95;;;;;;;10.73;100.00;100658.59;6531610;27;33913;-82
2023/05/12 10:20:56;;;;;;;8.20;5.37;;;;;;;10.77;100.00;100658.09;6532455;27;33965;-83
2023/05/12 10:24:02;;;;;;;6.97;5.35;;;;;;;10.81;100.00;100663.94;6550968;27;33397;-82
2023/05/12 10:27:07;;;;;;;10.38;5.65;;;;;;;10.95;100.00;100657.03;6558243;27;34852;-83
2023/05/12 10:30:11;;;;;;;12.18;5.68;;;;;;;10.85;100.00;100660.75;6556112;27;35322;-83
2023/05/12 10:33:14;;;;;;;9.30;5.65;;;;;;;10.77;100.00;100666.16;6561451;27;35076;-83
2023/05/12 10:36:18;;;;;;;11.52;6.55;;;;;;;10.91;100.00;100661.91;6550770;27;34710;-82
2023/05/12 10:39:31;;;;;;;10.32;5.90;;;;;;;10.95;100.00;100662.41;6531894;27;33995;-83
2023/05/12 10:42:39;;;;;;;10.00;5.78;;;;;;;10.81;100.00;100658.56;6551173;27;33720;-83
2023/05/12 10:45:42;;;;;;;7.70;6.05;;;;;;;10.76;100.00;100655.53;6531048;27;33857;-86
2023/05/12 10:49:08;;;;;;;9.55;5.70;;;;;;;10.67;100.00;100649.34;6531894;27;33591;-83
2023/05/12 10:52:12;;;;;;;9.32;5.93;;;;;;;10.53;100.00;100658.09;6551181;27;34380;-83
2023/05/12 10:55:15;;;;;;;8.18;6.10;;;;;;;10.46;100.00;100647.19;6531953;27;33870;-83
2023/05/12 10:58:18;;;;;;;7.95;6.10;;;;;;;10.43;100.00;100655.59;6531481;27;33731;-82
2023/05/12 11:01:23;;;;;;;8.82;5.85;;;;;;;10.53;100.00;100655.41;6531559;27;34661;-83
2023/05/12 11:05:04;;;;;;;9.45;6.12;;;;;;;10.53;100.00;100661.66;6550430;27;33511;-83
2023/05/12 11:08:09;;;;;;;8.30;6.40;;;;;;;10.45;100.00;100664.37;6517391;27;33792;-83
2023/05/12 11:11:17;;;;;;;10.43;6.05;;;;;;;10.45;100.00;100664.37;6551141;27;33790;-83
2023/05/12 11:14:20;;;;;;;13.30;6.87;;;;;;;10.53;100.00;100658.09;6550692;27;34666;-83
2023/05/12 11:17:23;;;;;;;8.30;6.28;;;;;;;10.69;100.00;100662.66;6530813;27;33706;-83
2023/05/12 11:20:26;;;;;;;10.63;6.78;;;;;;;10.83;100.00;100664.63;6513425;27;34605;-83
2023/05/12 11:23:32;;;;;;;6.90;5.18;;;;;;;11.08;100.00;100663.50;6531335;27;34724;-83
2023/05/12 11:26:35;;;;;;;9.50;6.03;;;;;;;11.20;100.00;100663.13;6513676;27;35015;-83
2023/05/12 11:29:40;;;;;;;8.75;5.90;;;;;;;11.20;100.00;100668.53;6549914;27;34902;-83
2023/05/12 11:32:43;;;;;;;7.90;5.43;;;;;;;11.20;100.00;100663.13;6513364;27;33795;-83
2023/05/12 11:35:46;;;;;;;7.87;5.70;;;;;;;11.31;100.00;100654.66;6550116;27;33722;-83
2023/05/12 11:38:52;;;;;;;8.30;5.72;;;;;;;11.25;100.00;100653.50;6528528;27;33927;-83
2023/05/12 11:42:09;;;;;;;8.95;5.62;;;;;;;11.19;100.00;100648.84;6549664;27;33945;-83
2023/05/12 11:45:23;;;;;;;8.13;5.90;;;;;;;11.13;100.00;100665.69;6549895;27;33764;-83
2023/05/12 11:48:36;;;;;;;8.93;5.43;;;;;;;11.09;100.00;100653.59;6551219;27;34036;-87
2023/05/12 11:51:42;;;;;;;8.13;5.45;;;;;;;11.10;100.00;100650.72;6550261;27;34192;-83
2023/05/12 11:54:48;;;;;;;8.45;6.25;;;;;;;11.24;100.00;100654.53;6552500;27;33856;-83
2023/05/12 11:57:58;;;;;;;7.47;5.00;;;;;;;11.33;100.00;100655.34;6553504;27;33536;-83
2023/05/12 12:01:10;;;;;;;9.52;5.62;;;;;;;11.30;100.00;100659.22;6555135;27;34740;-83
2023/05/12 12:04:13;;;;;;;6.40;5.15;;;;;;;11.34;100.00;100655.16;6535138;27;35066;-83
2023/05/12 12:07:30;;;;;;;8.65;5.50;;;;;;;11.45;100.00;100656.63;6537487;27;33631;-82
2023/05/12 12:10:33;;;;;;;11.15;5.22;;;;;;;11.56;100.00;100655.41;6537799;27;34011;-83
2023/05/12 12:13:36;;;;;;;5.95;4.87;;;;;;;11.69;100.00;100655.62;6534064;27;35014;-83
2023/05/12 12:16:39;;;;;;;8.55;5.45;;;;;;;11.85;100.00;100662.84;6524027;27;34035;-83
2023/05/12 12:19:42;;;;;;;7.45;5.10;;;;;;;11.83;100.00;100662.12;6525699;27;34083;-83
2023/05/12 12:22:45;;;;;;;7.78;5.47;;;;;;;11.67;100.00;100665.78;6539071;27;35051;-83
2023/05/12 12:25:47;;;;;;;7.93;5.18;;;;;;;11.77;100.00;100679.03;6539524;27;33984;-83
2023/05/12 12:28:50;;;;;;;5.85;4.78;;;;;;;11.72;100.00;100674.16;6538127;27;33457;-83
2023/05/12 12:31:53;;;;;;;5.70;4.70;;;;;;;11.70;100.00;100680.75;6559064;27;33776;-83
2023/05/12 12:34:58;;;;;;;6.50;4.78;;;;;;;11.66;100.00;100671.34;6554410;27;33980;-83
2023/05/12 12:38:01;;;;;;;6.75;4.68;;;;;;;11.59;100.00;100671.22;6540218;27;34628;-83
2023/05/12 12:41:05;;;;;;;6.10;5.15;;;;;;;11.48;100.00;100674.31;6555236;27;34612;-83
2023/05/12 12:44:08;;;;;;;7.10;5.43;;;;;;;11.39;100.00;100673.50;6517852;27;34315;-83
2023/05/12 12:47:11;;;;;;;8.13;4.95;;;;;;;11.29;100.00;100673.72;6517073;27;34028;-83
2023/05/12 12:50:14;;;;;;;10.88;6.05;;;;;;;11.22;100.00;100667.34;6520478;27;33747;-83
2023/05/12 12:53:17;;;;;;;11.27;6.05;;;;;;;11.26;100.00;100667.81;6549859;27;34738;-84
2023/05/12 12:56:20;;;;;;;8.35;5.32;;;;;;;11.28;100.00;100665.81;6550875;27;35143;-84
2023/05/12 12:59:26;;;;;;;6.22;5.12;;;;;;;11.25;100.00;100672.38;6545187;27;33882;-84
2023/05/12 13:02:29;;;;;;;7.30;5.35;;;;;;;11.15;100.00;100671.75;6517900;27;33923;-84
2023/05/12 13:05:32;;;;;;;6.30;4.70;;;;;;;11.23;100.00;100665.47;6531382;27;35087;-83
2023/05/12 13:08:35;;;;;;;6.78;4.25;;;;;;;11.14;100.00;100670.06;6551345;27;33893;-83
2023/05/12 13:11:38;;;;;;;7.15;4.25;;;;;;;11.16;100.00;100662.66;6514163;27;33897;-83
2023/05/12 13:14:41;;;;;;;5.30;4.45;;;;;;;11.11;100.00;100671.28;6514296;27;34307;-83
2023/05/12 13:17:47;;;;;;;6.85;4.57;;;;;;;11.07;100.00;100663.72;6513935;27;33910;-83
2023/05/12 13:20:50;;;;;;;5.28;4.53;;;;;;;11.05;100.00;100671.94;6532513;27;33792;-83
2023/05/12 13:23:53;;;;;;;6.15;4.43;;;;;;;11.03;100.00;100668.59;6551115;27;33502;-83
2023/05/12 13:26:56;;;;;;;5.40;4.12;;;;;;;11.01;100.00;100662.53;6531457;27;33805;-83
2023/05/12 13:29:59;;;;;;;6.45;4.03;;;;;;;10.99;100.00;100656.47;6551314;27;34618;-83
2023/05/12 13:33:01;;;;;;;4.60;3.47;;;;;;;11.05;100.00;100660.34;6553964;27;34440;-83
2023/05/12 13:36:07;;;;;;;5.87;4.03;;;;;;;11.05;100.00;100658.47;6555337;27;34171;-87
2023/05/12 13:39:11;;;;;;;10.43;4.22;;;;;;;11.10;100.00;100666.06;6551557;27;34038;-87
2023/05/12 13:42:14;;;;;;;5.35;3.97;;;;;;;11.15;100.00;100662.84;6514225;27;34380;-84
2023/05/12 13:45:17;;;;;;;4.82;4.32;;;;;;;11.23;100.00;100666.34;6514598;27;33468;-84
2023/05/12 13:48:21;;;;;;;6.87;4.50;;;;;;;11.14;100.00;100661.97;6514703;27;34576;-84
2023/05/12 13:51:24;;;;;;;6.85;4.90;;;;;;;11.02;100.00;100669.59;6531770;27;33774;-83
2023/05/12 13:54:27;;;;;;;6.25;4.60;;;;;;;11.08;100.00;100670.75;6551108;27;33365;-83
2023/05/12 13:57:30;;;;;;;5.65;4.75;;;;;;;10.97;100.00;100672.00;6550536;27;33968;-83
2023/05/12 14:00:33;;;;;;;6.00;4.70;;;;;;;10.99;100.00;100666.44;6496379;27;33574;-83
2023/05/12 14:03:37;;;;;;;13.52;5.50;;;;;;;10.92;100.00;100666.28;6531405;27;34902;-83
2023/05/12 14:06:40;;;;;;;6.82;4.62;;;;;;;10.93;100.00;100667.94;6550756;27;34406;-82
2023/05/12 14:09:43;;;;;;;5.25;4.72;;;;;;;10.82;100.00;100674.56;6531466;27;35413;-82
2023/05/12 14:12:46;;;;;;;5.25;4.47;;;;;;;10.82;100.00;100673.69;6513969;27;33509;-82
2023/05/12 14:15:49;;;;;;;6.95;4.97;;;;;;;10.79;100.00;100674.06;6513944;27;33652;-82
2023/05/12 14:18:53;;;;;;;6.87;4.45;;;;;;;10.71;100.00;100676.78;6513828;27;34078;-83
2023/05/12 14:21:56;;;;;;;5.60;4.70;;;;;;;10.63;100.00;100664.16;6531145;27;33675;-83
2023/05/12 14:24:59;;;;;;;10.65;5.43;;;;;;;10.60;100.00;100676.12;6531424;27;33807;-83
2023/05/12 14:28:02;;;;;;;7.55;4.75;;;;;;;10.58;100.00;100670.06;6550669;27;34071;-83
2023/05/12 14:31:05;;;;;;;7.47;5.30;;;;;;;10.54;100.00;100682.19;6513602;27;34597;-83
2023/05/12 14:34:08;;;;;;;7.62;4.90;;;;;;;10.59;100.00;100684.37;6531484;27;33945;-82
2023/05/12 14:37:14;;;;;;;7.35;4.80;;;;;;;10.56;100.00;100690.06;6531581;27;33972;-83
2023/05/12 14:40:17;;;;;;;6.50;4.50;;;;;;;10.56;100.00;100690.94;6531833;27;33556;-82
2023/05/12 14:43:19;;;;;;;5.47;4.87;;;;;;;10.55;100.00;100691.94;6550887;27;34354;-82
2023/05/12 14:46:24;;;;;;;6.57;5.15;;;;;;;10.55;100.00;100700.00;6525536;27;162291;-83
2023/05/12 14:49:27;;;;;;;12.90;6.03;;;;;;;10.48;100.00;100701.72;6531668;27;33929;-83
2023/05/12 14:52:32;;;;;;;8.00;5.35;;;;;;;10.48;100.00;100711.63;6531488;27;34973;-82
2023/05/12 14:55:35;;;;;;;6.55;4.93;;;;;;;10.42;100.00;100707.78;6550940;27;34819;-82
2023/05/12 14:58:38;;;;;;;7.10;5.22;;;;;;;10.41;100.00;100714.16;6531650;27;34183;-83
2023/05/12 15:01:41;;;;;;;8.32;5.65;;;;;;;10.35;100.00;100709.44;6514095;27;34068;-82
2023/05/12 15:04:44;;;;;;;5.60;4.35;;;;;;;10.51;100.00;100716.69;6530956;27;33705;-82
2023/05/12 15:07:46;;;;;;;7.93;4.50;;;;;;;10.47;100.00;100718.00;6531277;27;34328;-82
2023/05/12 15:10:49;;;;;;;6.60;4.05;;;;;;;10.38;100.00;100711.78;6513936;27;33773;-82
2023/05/12 15:13:52;;;;;;;7.43;4.53;;;;;;;10.35;100.00;100721.03;6531254;27;33627;-82
2023/05/12 15:16:55;;;;;;;5.25;4.57;;;;;;;10.29;100.00;100719.03;6549030;27;33902;-82
2023/05/12 15:19:58;;;;;;;6.82;4.50;;;;;;;10.30;100.00;100719.88;6527420;27;34253;-82
2023/05/12 15:23:01;;;;;;;7.62;4.53;;;;;;;10.29;100.00;100724.41;6514329;27;33541;-82
2023/05/12 15:26:06;;;;;;;5.95;4.37;;;;;;;10.31;100.00;100725.09;6531162;27;33345;-82
2023/05/12 15:29:31;;;;;;;5.65;4.32;;;;;;;10.31;100.00;100721.56;6534606;27;33362;-82
2023/05/12 15:32:33;;;;;;;6.10;4.82;;;;;;;10.34;100.00;100724.75;6531465;27;33880;-82
2023/05/12 15:35:38;;;;;;;6.57;4.78;;;;;;;10.31;100.00;100729.63;6530939;27;33953;-85
2023/05/12 15:38:41;;;;;;;6.35;4.70;;;;;;;10.31;100.00;100726.94;6550428;27;35092;-86
2023/05/12 15:41:44;;;;;;;6.40;4.45;;;;;;;10.43;100.00;100729.13;6531724;27;33518;-83
2023/05/12 15:44:47;;;;;;;6.05;4.72;;;;;;;10.47;100.00;100723.41;6514930;27;34640;-82
2023/05/12 15:47:50;;;;;;;6.45;4.60;;;;;;;10.40;100.00;100726.75;6534871;27;34191;-82
2023/05/12 15:50:52;;;;;;;9.88;4.82;;;;;;;10.40;100.00;100726.75;6513878;27;34772;-82
